sensor_id;sensor_type;location;lat;lon;timestamp;P1;durP1;ratioP1;P2;durP2;ratioP2
53411;SDS011;39307;52.870;13.660;2023-03-19T00:00:22;13.48;;;8.23;;
53411;SDS011;39307;52.870;13.660;2023-03-19T00:02:48;12.60;;;8.02;;
53411;SDS011;39307;52.870;13.660;2023-03-19T00:05:15;14.10;;;8.35;;
53411;SDS011;39307;52.870;13.660;2023-03-19T00:07:41;13.73;;;8.52;;
53411;SDS011;39307;52.870;13.660;2023-03-19T00:10:07;13.77;;;8.80;;
53411;SDS011;39307;52.870;13.660;2023-03-19T00:12:34;13.15;;;8.45;;
53411;SDS011;39307;52.870;13.660;2023-03-19T00:15:00;13.73;;;8.10;;
53411;SDS011;39307;52.870;13.660;2023-03-19T00:17:27;14.32;;;8.45;;
53411;SDS011;39307;52.870;13.660;2023-03-19T00:19:53;12.75;;;8.25;;
53411;SDS011;39307;52.870;13.660;2023-03-19T00:22:19;14.57;;;8.83;;
53411;SDS011;39307;52.870;13.660;2023-03-19T00:24:45;13.50;;;8.53;;
53411;SDS011;39307;52.870;13.660;2023-03-19T00:27:11;14.53;;;9.10;;
53411;SDS011;39307;52.870;13.660;2023-03-19T00:29:37;15.43;;;8.45;;
53411;SDS011;39307;52.870;13.660;2023-03-19T00:32:04;13.18;;;8.68;;
53411;SDS011;39307;52.870;13.660;2023-03-19T00:34:30;12.75;;;8.88;;
53411;SDS011;39307;52.870;13.660;2023-03-19T00:36:56;12.80;;;8.23;;
53411;SDS011;39307;52.870;13.660;2023-03-19T00:39:22;14.02;;;8.90;;
53411;SDS011;39307;52.870;13.660;2023-03-19T00:41:48;13.18;;;8.35;;
53411;SDS011;39307;52.870;13.660;2023-03-19T00:44:15;12.70;;;8.70;;
53411;SDS011;39307;52.870;13.660;2023-03-19T00:46:42;15.80;;;9.27;;
53411;SDS011;39307;52.870;13.660;2023-03-19T00:49:08;15.23;;;9.40;;
53411;SDS011;39307;52.870;13.660;2023-03-19T00:51:34;14.93;;;9.65;;
53411;SDS011;39307;52.870;13.660;2023-03-19T00:54:01;14.73;;;9.27;;
53411;SDS011;39307;52.870;13.660;2023-03-19T00:56:27;15.07;;;9.90;;
53411;SDS011;39307;52.870;13.660;2023-03-19T00:58:55;15.25;;;9.77;;
53411;SDS011;39307;52.870;13.660;2023-03-19T01:01:21;17.10;;;9.95;;
53411;SDS011;39307;52.870;13.660;2023-03-19T01:03:47;14.48;;;9.45;;
53411;SDS011;39307;52.870;13.660;2023-03-19T01:06:14;15.43;;;9.32;;
53411;SDS011;39307;52.870;13.660;2023-03-19T01:08:40;14.02;;;9.02;;
53411;SDS011;39307;52.870;13.660;2023-03-19T01:11:10;15.23;;;9.40;;
53411;SDS011;39307;52.870;13.660;2023-03-19T01:13:38;13.43;;;9.25;;
53411;SDS011;39307;52.870;13.660;2023-03-19T01:16:04;13.50;;;9.35;;
53411;SDS011;39307;52.870;13.660;2023-03-19T01:18:31;14.25;;;9.55;;
53411;SDS011;39307;52.870;13.660;2023-03-19T01:20:57;13.13;;;9.10;;
53411;SDS011;39307;52.870;13.660;2023-03-19T01:23:23;12.05;;;8.63;;
53411;SDS011;39307;52.870;13.660;2023-03-19T01:25:50;15.43;;;9.10;;
53411;SDS011;39307;52.870;13.660;2023-03-19T01:28:16;16.58;;;9.15;;
53411;SDS011;39307;52.870;13.660;2023-03-19T01:30:43;14.77;;;9.23;;
53411;SDS011;39307;52.870;13.660;2023-03-19T01:33:09;14.10;;;9.40;;
53411;SDS011;39307;52.870;13.660;2023-03-19T01:35:35;12.38;;;9.25;;
53411;SDS011;39307;52.870;13.660;2023-03-19T01:38:01;13.32;;;8.73;;
53411;SDS011;39307;52.870;13.660;2023-03-19T01:40:27;15.60;;;9.85;;
53411;SDS011;39307;52.870;13.660;2023-03-19T01:42:55;14.25;;;9.10;;
53411;SDS011;39307;52.870;13.660;2023-03-19T01:45:39;14.70;;;9.35;;
53411;SDS011;39307;52.870;13.660;2023-03-19T01:48:15;14.23;;;9.25;;
53411;SDS011;39307;52.870;13.660;2023-03-19T01:50:45;11.90;;;8.90;;
53411;SDS011;39307;52.870;13.660;2023-03-19T01:53:13;14.60;;;8.93;;
53411;SDS011;39307;52.870;13.660;2023-03-19T01:55:42;15.13;;;9.43;;
53411;SDS011;39307;52.870;13.660;2023-03-19T01:58:10;13.98;;;9.20;;
53411;SDS011;39307;52.870;13.660;2023-03-19T02:00:37;15.98;;;9.20;;
53411;SDS011;39307;52.870;13.660;2023-03-19T02:03:03;13.50;;;9.15;;
53411;SDS011;39307;52.870;13.660;2023-03-19T02:05:30;14.15;;;9.55;;
53411;SDS011;39307;52.870;13.660;2023-03-19T02:07:59;12.93;;;8.80;;
53411;SDS011;39307;52.870;13.660;2023-03-19T02:10:28;15.63;;;9.05;;
53411;SDS011;39307;52.870;13.660;2023-03-19T02:12:55;13.48;;;8.90;;
53411;SDS011;39307;52.870;13.660;2023-03-19T02:15:21;13.80;;;8.88;;
53411;SDS011;39307;52.870;13.660;2023-03-19T02:17:48;13.25;;;8.93;;
53411;SDS011;39307;52.870;13.660;2023-03-19T02:20:31;12.82;;;8.90;;
53411;SDS011;39307;52.870;13.660;2023-03-19T02:26:07;15.13;;;8.63;;
53411;SDS011;39307;52.870;13.660;2023-03-19T02:28:36;12.15;;;7.93;;
53411;SDS011;39307;52.870;13.660;2023-03-19T02:31:05;13.15;;;8.15;;
53411;SDS011;39307;52.870;13.660;2023-03-19T02:33:33;12.18;;;8.23;;
53411;SDS011;39307;52.870;13.660;2023-03-19T02:35:59;12.27;;;8.57;;
53411;SDS011;39307;52.870;13.660;2023-03-19T02:38:28;13.50;;;9.13;;
53411;SDS011;39307;52.870;13.660;2023-03-19T02:40:58;14.70;;;9.73;;
53411;SDS011;39307;52.870;13.660;2023-03-19T02:43:27;12.43;;;8.73;;
53411;SDS011;39307;52.870;13.660;2023-03-19T02:45:55;13.80;;;9.15;;
53411;SDS011;39307;52.870;13.660;2023-03-19T02:48:21;14.40;;;8.32;;
53411;SDS011;39307;52.870;13.660;2023-03-19T02:50:48;12.63;;;8.63;;
53411;SDS011;39307;52.870;13.660;2023-03-19T02:53:14;14.20;;;8.90;;
53411;SDS011;39307;52.870;13.660;2023-03-19T02:55:41;14.83;;;9.27;;
53411;SDS011;39307;52.870;13.660;2023-03-19T02:58:07;13.82;;;8.85;;
53411;SDS011;39307;52.870;13.660;2023-03-19T03:00:33;14.75;;;9.55;;
53411;SDS011;39307;52.870;13.660;2023-03-19T03:03:00;16.77;;;9.27;;
53411;SDS011;39307;52.870;13.660;2023-03-19T03:05:26;14.68;;;9.48;;
53411;SDS011;39307;52.870;13.660;2023-03-19T03:07:52;13.93;;;9.68;;
53411;SDS011;39307;52.870;13.660;2023-03-19T03:10:19;13.52;;;9.27;;
53411;SDS011;39307;52.870;13.660;2023-03-19T03:12:45;12.77;;;8.65;;
53411;SDS011;39307;52.870;13.660;2023-03-19T03:15:11;15.25;;;9.77;;
53411;SDS011;39307;52.870;13.660;2023-03-19T03:17:37;14.43;;;9.68;;
53411;SDS011;39307;52.870;13.660;2023-03-19T03:20:04;14.50;;;10.20;;
53411;SDS011;39307;52.870;13.660;2023-03-19T03:22:31;16.05;;;11.00;;
53411;SDS011;39307;52.870;13.660;2023-03-19T03:24:57;16.75;;;11.63;;
53411;SDS011;39307;52.870;13.660;2023-03-19T03:27:24;16.75;;;11.43;;
53411;SDS011;39307;52.870;13.660;2023-03-19T03:29:50;17.58;;;11.48;;
53411;SDS011;39307;52.870;13.660;2023-03-19T03:32:16;15.67;;;10.50;;
53411;SDS011;39307;52.870;13.660;2023-03-19T03:34:42;15.30;;;10.35;;
53411;SDS011;39307;52.870;13.660;2023-03-19T03:37:08;13.98;;;9.82;;
53411;SDS011;39307;52.870;13.660;2023-03-19T03:39:35;16.52;;;10.32;;
53411;SDS011;39307;52.870;13.660;2023-03-19T03:42:01;14.45;;;9.90;;
53411;SDS011;39307;52.870;13.660;2023-03-19T03:44:27;15.48;;;10.18;;
53411;SDS011;39307;52.870;13.660;2023-03-19T03:46:53;15.32;;;9.75;;
53411;SDS011;39307;52.870;13.660;2023-03-19T03:49:20;15.63;;;10.38;;
53411;SDS011;39307;52.870;13.660;2023-03-19T03:51:46;14.30;;;9.90;;
53411;SDS011;39307;52.870;13.660;2023-03-19T03:54:12;13.43;;;9.80;;
53411;SDS011;39307;52.870;13.660;2023-03-19T03:56:38;13.50;;;9.98;;
53411;SDS011;39307;52.870;13.660;2023-03-19T03:59:05;14.63;;;10.63;;
53411;SDS011;39307;52.870;13.660;2023-03-19T04:01:31;14.70;;;9.80;;
53411;SDS011;39307;52.870;13.660;2023-03-19T04:03:58;15.65;;;10.80;;
53411;SDS011;39307;52.870;13.660;2023-03-19T04:06:25;16.23;;;10.32;;
53411;SDS011;39307;52.870;13.660;2023-03-19T04:08:52;16.60;;;11.13;;
53411;SDS011;39307;52.870;13.660;2023-03-19T04:11:19;14.90;;;10.40;;
53411;SDS011;39307;52.870;13.660;2023-03-19T04:13:45;13.90;;;10.23;;
53411;SDS011;39307;52.870;13.660;2023-03-19T04:16:11;13.70;;;10.68;;
53411;SDS011;39307;52.870;13.660;2023-03-19T04:18:38;14.77;;;10.05;;
53411;SDS011;39307;52.870;13.660;2023-03-19T04:21:04;13.87;;;9.90;;
53411;SDS011;39307;52.870;13.660;2023-03-19T04:23:31;15.07;;;10.00;;
53411;SDS011;39307;52.870;13.660;2023-03-19T04:26:01;13.95;;;10.15;;
53411;SDS011;39307;52.870;13.660;2023-03-19T04:28:29;16.17;;;10.40;;
53411;SDS011;39307;52.870;13.660;2023-03-19T04:31:01;19.07;;;11.33;;
53411;SDS011;39307;52.870;13.660;2023-03-19T04:33:29;14.07;;;10.57;;
53411;SDS011;39307;52.870;13.660;2023-03-19T04:35:55;16.67;;;10.70;;
53411;SDS011;39307;52.870;13.660;2023-03-19T04:38:22;18.20;;;11.48;;
53411;SDS011;39307;52.870;13.660;2023-03-19T04:40:49;17.70;;;11.80;;
53411;SDS011;39307;52.870;13.660;2023-03-19T04:43:15;17.60;;;11.85;;
53411;SDS011;39307;52.870;13.660;2023-03-19T04:45:41;17.40;;;11.85;;
53411;SDS011;39307;52.870;13.660;2023-03-19T04:48:07;17.42;;;12.18;;
53411;SDS011;39307;52.870;13.660;2023-03-19T04:50:34;17.50;;;11.07;;
53411;SDS011;39307;52.870;13.660;2023-03-19T04:53:00;17.08;;;11.50;;
53411;SDS011;39307;52.870;13.660;2023-03-19T04:55:27;17.25;;;12.25;;
53411;SDS011;39307;52.870;13.660;2023-03-19T04:57:53;16.38;;;11.25;;
53411;SDS011;39307;52.870;13.660;2023-03-19T05:00:19;17.08;;;12.05;;
53411;SDS011;39307;52.870;13.660;2023-03-19T05:02:45;16.58;;;11.80;;
53411;SDS011;39307;52.870;13.660;2023-03-19T05:05:12;16.48;;;11.68;;
53411;SDS011;39307;52.870;13.660;2023-03-19T05:07:38;16.80;;;12.20;;
53411;SDS011;39307;52.870;13.660;2023-03-19T05:10:05;17.67;;;12.18;;
53411;SDS011;39307;52.870;13.660;2023-03-19T05:12:32;15.75;;;11.32;;
53411;SDS011;39307;52.870;13.660;2023-03-19T05:14:58;16.15;;;11.70;;
53411;SDS011;39307;52.870;13.660;2023-03-19T05:17:25;15.60;;;11.25;;
53411;SDS011;39307;52.870;13.660;2023-03-19T05:19:51;15.90;;;11.93;;
53411;SDS011;39307;52.870;13.660;2023-03-19T05:22:17;15.37;;;11.47;;
53411;SDS011;39307;52.870;13.660;2023-03-19T05:24:44;17.63;;;11.45;;
53411;SDS011;39307;52.870;13.660;2023-03-19T05:27:10;17.00;;;11.80;;
53411;SDS011;39307;52.870;13.660;2023-03-19T05:29:37;14.80;;;11.50;;
53411;SDS011;39307;52.870;13.660;2023-03-19T05:32:03;15.90;;;12.23;;
53411;SDS011;39307;52.870;13.660;2023-03-19T05:34:30;16.55;;;11.38;;
53411;SDS011;39307;52.870;13.660;2023-03-19T05:36:56;15.82;;;11.38;;
53411;SDS011;39307;52.870;13.660;2023-03-19T05:39:22;14.52;;;10.63;;
53411;SDS011;39307;52.870;13.660;2023-03-19T05:41:49;16.50;;;11.27;;
53411;SDS011;39307;52.870;13.660;2023-03-19T05:44:15;15.23;;;11.60;;
53411;SDS011;39307;52.870;13.660;2023-03-19T05:46:41;17.27;;;11.50;;
53411;SDS011;39307;52.870;13.660;2023-03-19T05:49:07;15.48;;;11.00;;
53411;SDS011;39307;52.870;13.660;2023-03-19T05:51:34;16.58;;;11.68;;
53411;SDS011;39307;52.870;13.660;2023-03-19T05:54:01;14.90;;;11.65;;
53411;SDS011;39307;52.870;13.660;2023-03-19T05:56:28;15.90;;;11.70;;
53411;SDS011;39307;52.870;13.660;2023-03-19T05:58:54;17.17;;;11.93;;
53411;SDS011;39307;52.870;13.660;2023-03-19T06:01:21;16.38;;;12.57;;
53411;SDS011;39307;52.870;13.660;2023-03-19T06:03:47;16.95;;;12.77;;
53411;SDS011;39307;52.870;13.660;2023-03-19T06:06:13;18.10;;;13.70;;
53411;SDS011;39307;52.870;13.660;2023-03-19T06:08:40;19.92;;;13.63;;
53411;SDS011;39307;52.870;13.660;2023-03-19T06:11:06;21.77;;;15.40;;
53411;SDS011;39307;52.870;13.660;2023-03-19T06:13:33;21.58;;;15.55;;
53411;SDS011;39307;52.870;13.660;2023-03-19T06:15:59;24.97;;;15.80;;
53411;SDS011;39307;52.870;13.660;2023-03-19T06:18:28;25.27;;;16.45;;
53411;SDS011;39307;52.870;13.660;2023-03-19T06:20:54;21.90;;;15.87;;
53411;SDS011;39307;52.870;13.660;2023-03-19T06:23:20;23.98;;;16.45;;
53411;SDS011;39307;52.870;13.660;2023-03-19T06:25:46;21.98;;;15.95;;
53411;SDS011;39307;52.870;13.660;2023-03-19T06:28:13;20.77;;;15.38;;
53411;SDS011;39307;52.870;13.660;2023-03-19T06:30:39;24.15;;;16.52;;
53411;SDS011;39307;52.870;13.660;2023-03-19T06:33:05;21.85;;;16.95;;
53411;SDS011;39307;52.870;13.660;2023-03-19T06:35:31;23.25;;;16.55;;
53411;SDS011;39307;52.870;13.660;2023-03-19T06:37:57;22.95;;;17.33;;
53411;SDS011;39307;52.870;13.660;2023-03-19T06:40:24;23.45;;;18.15;;
53411;SDS011;39307;52.870;13.660;2023-03-19T06:42:50;23.65;;;18.05;;
53411;SDS011;39307;52.870;13.660;2023-03-19T06:45:16;26.30;;;18.95;;
53411;SDS011;39307;52.870;13.660;2023-03-19T06:47:42;24.15;;;19.15;;
53411;SDS011;39307;52.870;13.660;2023-03-19T06:50:10;23.80;;;18.47;;
53411;SDS011;39307;52.870;13.660;2023-03-19T06:52:37;29.50;;;21.10;;
53411;SDS011;39307;52.870;13.660;2023-03-19T06:55:03;25.35;;;20.27;;
53411;SDS011;39307;52.870;13.660;2023-03-19T06:57:30;33.53;;;27.75;;
53411;SDS011;39307;52.870;13.660;2023-03-19T06:59:56;29.17;;;24.00;;
53411;SDS011;39307;52.870;13.660;2023-03-19T07:02:22;25.83;;;20.60;;
53411;SDS011;39307;52.870;13.660;2023-03-19T07:04:48;21.52;;;18.08;;
53411;SDS011;39307;52.870;13.660;2023-03-19T07:07:15;24.08;;;19.70;;
53411;SDS011;39307;52.870;13.660;2023-03-19T07:09:41;23.27;;;19.85;;
53411;SDS011;39307;52.870;13.660;2023-03-19T07:12:07;28.43;;;23.73;;
53411;SDS011;39307;52.870;13.660;2023-03-19T07:14:33;28.10;;;24.80;;
53411;SDS011;39307;52.870;13.660;2023-03-19T07:17:00;26.38;;;22.35;;
53411;SDS011;39307;52.870;13.660;2023-03-19T07:19:26;21.60;;;18.65;;
53411;SDS011;39307;52.870;13.660;2023-03-19T07:21:52;22.17;;;17.88;;
53411;SDS011;39307;52.870;13.660;2023-03-19T07:24:18;23.58;;;17.35;;
53411;SDS011;39307;52.870;13.660;2023-03-19T07:26:44;26.00;;;17.48;;
53411;SDS011;39307;52.870;13.660;2023-03-19T07:29:11;23.42;;;17.02;;
53411;SDS011;39307;52.870;13.660;2023-03-19T07:31:37;18.35;;;13.55;;
53411;SDS011;39307;52.870;13.660;2023-03-19T07:34:04;24.35;;;17.60;;
53411;SDS011;39307;52.870;13.660;2023-03-19T07:36:30;22.30;;;15.98;;
53411;SDS011;39307;52.870;13.660;2023-03-19T07:38:56;18.67;;;13.10;;
53411;SDS011;39307;52.870;13.660;2023-03-19T07:41:22;21.40;;;16.92;;
53411;SDS011;39307;52.870;13.660;2023-03-19T07:43:48;34.55;;;30.95;;
53411;SDS011;39307;52.870;13.660;2023-03-19T07:46:15;23.65;;;18.67;;
53411;SDS011;39307;52.870;13.660;2023-03-19T07:48:41;24.13;;;18.13;;
53411;SDS011;39307;52.870;13.660;2023-03-19T07:51:07;22.10;;;16.08;;
53411;SDS011;39307;52.870;13.660;2023-03-19T07:53:33;20.63;;;16.00;;
53411;SDS011;39307;52.870;13.660;2023-03-19T07:55:59;18.58;;;13.88;;
53411;SDS011;39307;52.870;13.660;2023-03-19T07:58:25;16.00;;;12.90;;
53411;SDS011;39307;52.870;13.660;2023-03-19T08:00:52;18.30;;;15.38;;
53411;SDS011;39307;52.870;13.660;2023-03-19T08:03:19;20.83;;;15.75;;
53411;SDS011;39307;52.870;13.660;2023-03-19T08:05:47;20.55;;;17.73;;
53411;SDS011;39307;52.870;13.660;2023-03-19T08:08:14;21.60;;;17.70;;
53411;SDS011;39307;52.870;13.660;2023-03-19T08:10:40;19.40;;;16.00;;
53411;SDS011;39307;52.870;13.660;2023-03-19T08:13:07;22.13;;;17.40;;
53411;SDS011;39307;52.870;13.660;2023-03-19T08:15:33;20.35;;;15.77;;
53411;SDS011;39307;52.870;13.660;2023-03-19T08:17:59;21.17;;;17.13;;
53411;SDS011;39307;52.870;13.660;2023-03-19T08:20:26;86.30;;;51.90;;
53411;SDS011;39307;52.870;13.660;2023-03-19T08:22:53;57.00;;;38.50;;
53411;SDS011;39307;52.870;13.660;2023-03-19T08:25:19;25.85;;;19.40;;
53411;SDS011;39307;52.870;13.660;2023-03-19T08:27:47;23.17;;;17.40;;
53411;SDS011;39307;52.870;13.660;2023-03-19T08:30:13;21.33;;;16.10;;
53411;SDS011;39307;52.870;13.660;2023-03-19T08:32:39;19.05;;;14.60;;
53411;SDS011;39307;52.870;13.660;2023-03-19T08:35:06;18.40;;;14.70;;
53411;SDS011;39307;52.870;13.660;2023-03-19T08:37:32;23.33;;;18.42;;
53411;SDS011;39307;52.870;13.660;2023-03-19T08:39:58;22.92;;;19.60;;
53411;SDS011;39307;52.870;13.660;2023-03-19T08:42:25;24.00;;;17.92;;
53411;SDS011;39307;52.870;13.660;2023-03-19T08:44:51;25.50;;;20.23;;
53411;SDS011;39307;52.870;13.660;2023-03-19T08:47:17;20.77;;;16.23;;
53411;SDS011;39307;52.870;13.660;2023-03-19T08:49:43;16.67;;;12.73;;
53411;SDS011;39307;52.870;13.660;2023-03-19T08:52:09;18.58;;;12.35;;
53411;SDS011;39307;52.870;13.660;2023-03-19T08:54:36;16.75;;;12.45;;
53411;SDS011;39307;52.870;13.660;2023-03-19T08:57:02;15.27;;;11.33;;
53411;SDS011;39307;52.870;13.660;2023-03-19T08:59:29;18.98;;;15.10;;
53411;SDS011;39307;52.870;13.660;2023-03-19T09:01:55;12.88;;;10.82;;
53411;SDS011;39307;52.870;13.660;2023-03-19T09:04:21;17.97;;;13.47;;
53411;SDS011;39307;52.870;13.660;2023-03-19T09:06:47;21.03;;;16.93;;
53411;SDS011;39307;52.870;13.660;2023-03-19T09:09:14;34.38;;;31.13;;
53411;SDS011;39307;52.870;13.660;2023-03-19T09:11:40;20.00;;;17.75;;
53411;SDS011;39307;52.870;13.660;2023-03-19T09:14:06;15.70;;;12.48;;
53411;SDS011;39307;52.870;13.660;2023-03-19T09:16:32;15.77;;;12.98;;
53411;SDS011;39307;52.870;13.660;2023-03-19T09:18:58;14.93;;;11.95;;
53411;SDS011;39307;52.870;13.660;2023-03-19T09:21:25;14.93;;;12.63;;
53411;SDS011;39307;52.870;13.660;2023-03-19T09:23:51;13.50;;;10.40;;
53411;SDS011;39307;52.870;13.660;2023-03-19T09:26:17;13.35;;;9.30;;
53411;SDS011;39307;52.870;13.660;2023-03-19T09:28:42;11.57;;;9.15;;
53411;SDS011;39307;52.870;13.660;2023-03-19T09:31:09;10.77;;;8.73;;
53411;SDS011;39307;52.870;13.660;2023-03-19T09:33:35;11.43;;;8.73;;
53411;SDS011;39307;52.870;13.660;2023-03-19T09:36:02;12.03;;;9.47;;
53411;SDS011;39307;52.870;13.660;2023-03-19T09:38:28;16.10;;;13.55;;
53411;SDS011;39307;52.870;13.660;2023-03-19T09:43:41;35.13;;;27.85;;
53411;SDS011;39307;52.870;13.660;2023-03-19T09:46:15;13.32;;;10.30;;
53411;SDS011;39307;52.870;13.660;2023-03-19T09:49:08;14.80;;;10.70;;
53411;SDS011;39307;52.870;13.660;2023-03-19T09:54:25;14.98;;;11.52;;
53411;SDS011;39307;52.870;13.660;2023-03-19T09:56:52;14.07;;;11.93;;
53411;SDS011;39307;52.870;13.660;2023-03-19T09:59:20;15.25;;;12.00;;
53411;SDS011;39307;52.870;13.660;2023-03-19T10:01:57;17.92;;;13.18;;
53411;SDS011;39307;52.870;13.660;2023-03-19T10:16:35;13.90;;;10.63;;
53411;SDS011;39307;52.870;13.660;2023-03-19T10:19:04;13.57;;;10.18;;
53411;SDS011;39307;52.870;13.660;2023-03-19T10:24:13;15.03;;;10.90;;
53411;SDS011;39307;52.870;13.660;2023-03-19T10:26:55;15.48;;;11.77;;
53411;SDS011;39307;52.870;13.660;2023-03-19T10:29:32;13.90;;;10.85;;
53411;SDS011;39307;52.870;13.660;2023-03-19T10:32:05;10.90;;;8.73;;
53411;SDS011;39307;52.870;13.660;2023-03-19T10:34:41;11.32;;;9.30;;
53411;SDS011;39307;52.870;13.660;2023-03-19T10:37:13;13.20;;;9.10;;
53411;SDS011;39307;52.870;13.660;2023-03-19T10:39:43;12.07;;;8.27;;
53411;SDS011;39307;52.870;13.660;2023-03-19T10:45:28;11.13;;;8.45;;
53411;SDS011;39307;52.870;13.660;2023-03-19T10:47:56;11.73;;;8.70;;
53411;SDS011;39307;52.870;13.660;2023-03-19T10:50:36;11.98;;;9.00;;
53411;SDS011;39307;52.870;13.660;2023-03-19T10:58:42;11.85;;;8.18;;
53411;SDS011;39307;52.870;13.660;2023-03-19T11:01:25;11.68;;;8.13;;
53411;SDS011;39307;52.870;13.660;2023-03-19T11:03:57;11.10;;;8.35;;
53411;SDS011;39307;52.870;13.660;2023-03-19T11:06:26;10.00;;;8.20;;
53411;SDS011;39307;52.870;13.660;2023-03-19T11:09:01;9.85;;;7.80;;
53411;SDS011;39307;52.870;13.660;2023-03-19T11:11:45;11.98;;;8.32;;
53411;SDS011;39307;52.870;13.660;2023-03-19T11:14:17;12.15;;;8.10;;
53411;SDS011;39307;52.870;13.660;2023-03-19T11:16:49;9.53;;;7.50;;
53411;SDS011;39307;52.870;13.660;2023-03-19T11:19:28;8.95;;;6.28;;
53411;SDS011;39307;52.870;13.660;2023-03-19T11:22:01;10.52;;;6.40;;
53411;SDS011;39307;52.870;13.660;2023-03-19T11:25:22;7.95;;;6.10;;
53411;SDS011;39307;52.870;13.660;2023-03-19T11:30:46;7.95;;;5.70;;
53411;SDS011;39307;52.870;13.660;2023-03-19T11:36:20;6.65;;;5.00;;
53411;SDS011;39307;52.870;13.660;2023-03-19T11:42:17;7.70;;;5.32;;
53411;SDS011;39307;52.870;13.660;2023-03-19T11:47:47;6.88;;;4.60;;
53411;SDS011;39307;52.870;13.660;2023-03-19T11:50:34;7.00;;;4.53;;
53411;SDS011;39307;52.870;13.660;2023-03-19T12:01:52;8.65;;;4.93;;
53411;SDS011;39307;52.870;13.660;2023-03-19T12:12:40;10.15;;;6.70;;
53411;SDS011;39307;52.870;13.660;2023-03-19T12:17:43;10.03;;;6.13;;
53411;SDS011;39307;52.870;13.660;2023-03-19T12:23:04;6.90;;;4.63;;
53411;SDS011;39307;52.870;13.660;2023-03-19T12:28:33;6.90;;;4.32;;
53411;SDS011;39307;52.870;13.660;2023-03-19T12:36:24;4.97;;;2.65;;
53411;SDS011;39307;52.870;13.660;2023-03-19T12:39:04;4.57;;;2.50;;
53411;SDS011;39307;52.870;13.660;2023-03-19T12:41:38;5.03;;;2.40;;
53411;SDS011;39307;52.870;13.660;2023-03-19T12:44:09;4.60;;;2.53;;
53411;SDS011;39307;52.870;13.660;2023-03-19T12:49:32;4.53;;;2.50;;
53411;SDS011;39307;52.870;13.660;2023-03-19T12:52:36;4.90;;;2.55;;
53411;SDS011;39307;52.870;13.660;2023-03-19T12:57:46;5.30;;;2.80;;
53411;SDS011;39307;52.870;13.660;2023-03-19T13:03:03;4.78;;;2.80;;
53411;SDS011;39307;52.870;13.660;2023-03-19T13:05:52;5.32;;;3.20;;
53411;SDS011;39307;52.870;13.660;2023-03-19T13:11:32;5.80;;;3.58;;
53411;SDS011;39307;52.870;13.660;2023-03-19T13:14:07;5.68;;;4.00;;
53411;SDS011;39307;52.870;13.660;2023-03-19T13:16:46;6.20;;;3.80;;
53411;SDS011;39307;52.870;13.660;2023-03-19T13:19:33;6.90;;;4.18;;
53411;SDS011;39307;52.870;13.660;2023-03-19T13:22:05;9.27;;;4.10;;
53411;SDS011;39307;52.870;13.660;2023-03-19T13:24:39;6.22;;;4.00;;
53411;SDS011;39307;52.870;13.660;2023-03-19T13:27:08;6.53;;;4.20;;
53411;SDS011;39307;52.870;13.660;2023-03-19T13:29:55;7.30;;;4.50;;
53411;SDS011;39307;52.870;13.660;2023-03-19T13:32:52;7.00;;;4.03;;
53411;SDS011;39307;52.870;13.660;2023-03-19T13:35:35;6.80;;;4.35;;
53411;SDS011;39307;52.870;13.660;2023-03-19T13:40:38;6.70;;;4.57;;
53411;SDS011;39307;52.870;13.660;2023-03-19T13:51:13;7.15;;;4.50;;
53411;SDS011;39307;52.870;13.660;2023-03-19T13:54:06;7.38;;;4.70;;
53411;SDS011;39307;52.870;13.660;2023-03-19T13:59:26;8.55;;;4.80;;
53411;SDS011;39307;52.870;13.660;2023-03-19T14:01:54;6.78;;;4.47;;
53411;SDS011;39307;52.870;13.660;2023-03-19T14:04:28;7.75;;;4.65;;
53411;SDS011;39307;52.870;13.660;2023-03-19T14:07:09;8.93;;;5.15;;
53411;SDS011;39307;52.870;13.660;2023-03-19T14:09:44;7.07;;;5.13;;
53411;SDS011;39307;52.870;13.660;2023-03-19T14:14:45;7.97;;;4.60;;
53411;SDS011;39307;52.870;13.660;2023-03-19T14:17:26;8.13;;;5.63;;
53411;SDS011;39307;52.870;13.660;2023-03-19T14:22:39;7.50;;;4.18;;
53411;SDS011;39307;52.870;13.660;2023-03-19T14:25:19;6.70;;;4.35;;
53411;SDS011;39307;52.870;13.660;2023-03-19T14:27:50;7.18;;;4.13;;
53411;SDS011;39307;52.870;13.660;2023-03-19T14:30:27;10.48;;;6.60;;
53411;SDS011;39307;52.870;13.660;2023-03-19T14:32:55;8.13;;;4.88;;
53411;SDS011;39307;52.870;13.660;2023-03-19T14:35:24;8.48;;;5.43;;
53411;SDS011;39307;52.870;13.660;2023-03-19T14:37:51;17.73;;;12.23;;
53411;SDS011;39307;52.870;13.660;2023-03-19T14:40:22;12.18;;;7.90;;
53411;SDS011;39307;52.870;13.660;2023-03-19T14:42:57;8.63;;;6.40;;
53411;SDS011;39307;52.870;13.660;2023-03-19T14:45:38;7.28;;;4.85;;
53411;SDS011;39307;52.870;13.660;2023-03-19T14:57:13;6.18;;;4.15;;
53411;SDS011;39307;52.870;13.660;2023-03-19T14:59:43;6.57;;;4.07;;
53411;SDS011;39307;52.870;13.660;2023-03-19T15:02:17;8.13;;;4.75;;
53411;SDS011;39307;52.870;13.660;2023-03-19T15:05:05;6.57;;;4.07;;
53411;SDS011;39307;52.870;13.660;2023-03-19T15:08:00;8.52;;;4.60;;
53411;SDS011;39307;52.870;13.660;2023-03-19T15:17:41;7.88;;;4.95;;
53411;SDS011;39307;52.870;13.660;2023-03-19T15:19:47;7.95;;;5.10;;
53411;SDS011;39307;52.870;13.660;2023-03-19T15:22:14;7.72;;;4.75;;
53411;SDS011;39307;52.870;13.660;2023-03-19T15:24:46;7.20;;;4.50;;
53411;SDS011;39307;52.870;13.660;2023-03-19T15:27:22;7.07;;;4.15;;
53411;SDS011;39307;52.870;13.660;2023-03-19T15:29:50;7.18;;;4.20;;
53411;SDS011;39307;52.870;13.660;2023-03-19T15:32:30;7.20;;;3.97;;
53411;SDS011;39307;52.870;13.660;2023-03-19T15:35:00;7.28;;;4.30;;
53411;SDS011;39307;52.870;13.660;2023-03-19T15:37:27;7.57;;;4.13;;
53411;SDS011;39307;52.870;13.660;2023-03-19T15:39:58;6.07;;;4.18;;
53411;SDS011;39307;52.870;13.660;2023-03-19T15:42:27;7.23;;;4.33;;
53411;SDS011;39307;52.870;13.660;2023-03-19T15:44:56;7.78;;;4.68;;
53411;SDS011;39307;52.870;13.660;2023-03-19T15:47:29;6.95;;;4.45;;
53411;SDS011;39307;52.870;13.660;2023-03-19T15:50:03;7.88;;;4.88;;
53411;SDS011;39307;52.870;13.660;2023-03-19T15:52:36;8.05;;;4.60;;
53411;SDS011;39307;52.870;13.660;2023-03-19T15:55:06;8.98;;;5.35;;
53411;SDS011;39307;52.870;13.660;2023-03-19T15:57:36;9.13;;;5.20;;
53411;SDS011;39307;52.870;13.660;2023-03-19T16:00:06;8.10;;;5.20;;
53411;SDS011;39307;52.870;13.660;2023-03-19T16:02:34;8.88;;;5.25;;
53411;SDS011;39307;52.870;13.660;2023-03-19T16:05:05;10.38;;;5.60;;
53411;SDS011;39307;52.870;13.660;2023-03-19T16:07:49;8.43;;;5.28;;
53411;SDS011;39307;52.870;13.660;2023-03-19T16:10:33;9.23;;;5.20;;
53411;SDS011;39307;52.870;13.660;2023-03-19T16:13:25;8.95;;;5.13;;
53411;SDS011;39307;52.870;13.660;2023-03-19T16:16:00;8.15;;;5.13;;
53411;SDS011;39307;52.870;13.660;2023-03-19T16:18:39;9.70;;;5.50;;
53411;SDS011;39307;52.870;13.660;2023-03-19T16:21:09;7.15;;;4.80;;
53411;SDS011;39307;52.870;13.660;2023-03-19T16:23:43;8.18;;;4.90;;
53411;SDS011;39307;52.870;13.660;2023-03-19T16:26:21;8.32;;;5.10;;
53411;SDS011;39307;52.870;13.660;2023-03-19T16:28:56;7.80;;;5.15;;
53411;SDS011;39307;52.870;13.660;2023-03-19T16:42:41;8.88;;;5.40;;